Balfour, Canada
Current Conditions -  °F | °C
As of 7:27 AM on Thursday 18 Dec 2014 (Local Time) from CYCG Reporting Station
Light Snow Light Snow  
Wind Chill: 32°   Ceiling: 2700
Heat Index: 32°   Visibility: 2mi
Dew Point: 32°   Wind: 2mph
Humidity: 100%   Direction: 160°SSE
Pressure: 29.99"   Gusts: NA
Location:  49.63°N, 116.97°W
Report Text: CYCG 181527Z 16002KT 2SM -SN OVC027 M00/M00 A2999 RMK SN3SC5 SLP175
Loading
Personal Weather Stations






























Interactive Weather Map New forecast layout! Learn more

10-Day Weather Forecast

Advertisements
Track Severe Weather on mobile